Time;durP1;ratioP1;P1;durP2;ratioP2;P2;SDS_P1;SDS_P2;PMS_P1;PMS_P2;Temp;Humidity;BMP_temperature;BMP_pressure;BME280_temperature;BME280_humidity;BME280_pressure;Samples;Min_cycle;Max_cycle;Signal;HPM_P1;HPM_P2
2022/09/03 00:02:12;;;;;;;2.87;1.60;;;;;;;13.90;55.96;100463.97;30860304;28;96685;-62
2022/09/03 00:17:20;;;;;;;3.53;1.50;;;;;;;13.59;55.99;100456.97;30859329;28;97183;-62
2022/09/03 00:32:28;;;;;;;5.23;1.77;;;;;;;13.17;56.78;100448.47;30856811;28;96748;-61
2022/09/03 00:47:47;;;;;;;2.73;1.73;;;;;;;12.83;57.63;100442.53;30855420;28;97415;-61
2022/09/03 01:03:04;;;;;;;3.17;1.73;;;;;;;12.47;58.15;100453.00;30779821;28;96910;-61
2022/09/03 01:18:27;;;;;;;4.40;1.90;;;;;;;12.24;58.92;100460.97;30741650;28;97307;-61
2022/09/03 01:33:31;;;;;;;2.77;1.70;;;;;;;11.97;59.89;100463.91;30740255;28;97722;-59
2022/09/03 01:48:34;;;;;;;6.47;1.77;;;;;;;11.55;61.03;100449.00;30738568;28;96749;-62
2022/09/03 02:03:37;;;;;;;;;;;;;;;11.24;61.85;100438.22;30737001;28;96683;-59
2022/09/03 02:18:42;;;;;;;4.60;1.80;;;;;;;10.90;62.40;100440.06;30736926;28;96727;-62
2022/09/03 02:33:45;;;;;;;6.47;2.60;;;;;;;10.69;63.13;100445.88;30734955;28;96803;-62
2022/09/03 02:48:45;;;;;;;4.67;2.37;;;;;;;10.57;63.55;100449.84;30734522;28;96690;-62
2022/09/03 03:03:45;;;;;;;5.65;2.00;;;;;;;10.51;63.80;100443.31;30733836;28;97651;-62
2022/09/03 03:18:46;;;;;;;7.38;2.33;;;;;;;10.65;64.16;100444.53;30751738;28;97129;-60
2022/09/03 03:33:54;;;;;;;4.30;2.03;;;;;;;10.44;64.30;100443.19;30749762;28;96770;-60
2022/09/03 03:48:54;;;;;;;3.80;2.37;;;;;;;10.16;65.02;100453.22;30749159;28;96812;-62
2022/09/03 04:03:56;;;;;;;4.30;2.45;;;;;;;9.89;65.32;100447.09;30748500;28;96875;-60
2022/09/03 04:18:57;;;;;;;4.43;2.33;;;;;;;9.77;65.95;100453.69;30745738;28;96980;-60
2022/09/03 04:33:57;;;;;;;7.57;3.00;;;;;;;9.79;66.42;100452.53;30744063;28;97370;-62
2022/09/03 04:48:58;;;;;;;7.35;2.72;;;;;;;10.03;66.81;100472.28;30742736;28;96756;-62
2022/09/03 05:03:59;;;;;;;3.25;2.03;;;;;;;10.50;66.30;100466.47;30742151;28;96752;-62
2022/09/03 05:18:59;;;;;;;5.27;2.30;;;;;;;11.13;66.24;100487.38;30739410;28;96808;-62
2022/09/03 05:34:02;;;;;;;4.70;2.20;;;;;;;11.72;65.11;100491.66;30738561;28;96742;-61
2022/09/03 05:49:05;;;;;;;6.33;1.93;;;;;;;12.23;64.40;100486.81;30736561;28;97349;-62
2022/09/03 06:04:11;;;;;;;3.07;1.90;;;;;;;13.10;62.75;100498.34;30736061;28;96926;-62
2022/09/03 06:19:12;;;;;;;4.83;2.23;;;;;;;14.42;60.81;100489.78;30733694;28;96729;-62
2022/09/03 06:34:15;;;;;;;5.47;2.63;;;;;;;14.96;58.00;100506.47;30731970;28;96752;-61
2022/09/03 06:49:15;;;;;;;2.33;1.57;;;;;;;15.74;56.47;100514.53;30729915;28;96813;-61
2022/09/03 07:04:16;;;;;;;3.90;2.33;;;;;;;16.92;54.40;100522.56;30730871;28;96782;-61
2022/09/03 07:19:17;;;;;;;5.55;1.90;;;;;;;19.29;50.42;100511.78;30730461;28;96920;-59
2022/09/03 07:34:18;;;;;;;4.40;2.23;;;;;;;19.82;47.20;100507.78;30728796;28;97255;-60
2022/09/03 07:49:20;;;;;;;;;;;;;;;20.21;45.38;100515.69;30727415;28;97348;-60
2022/09/03 08:04:20;;;;;;;5.00;2.10;;;;;;;20.83;44.03;100511.97;30746966;28;97557;-61
2022/09/03 08:19:22;;;;;;;9.27;2.80;;;;;;;21.39;42.00;100515.28;30743967;28;96696;-60
2022/09/03 08:34:23;;;;;;;4.60;2.40;;;;;;;23.09;40.33;100500.63;30781130;28;97969;-60
2022/09/03 08:49:32;;;;;;;5.70;2.40;;;;;;;25.40;36.15;100501.03;30777993;28;96902;-61
2022/09/03 09:04:45;;;;;;;7.00;2.53;;;;;;;27.01;32.72;100487.75;30739906;28;97589;-61
2022/09/03 09:19:54;;;;;;;7.13;2.63;;;;;;;37.68;20.31;100484.69;30745568;28;97807;-61
2022/09/03 09:34:54;;;;;;;4.50;1.93;;;;;;;43.10;15.18;100481.03;30834727;28;98020;-64
2022/09/03 09:49:58;;;;;;;5.18;2.30;;;;;;;43.45;12.94;100468.50;30815410;28;98346;-61
2022/09/03 10:05:13;;;;;;;5.40;2.30;;;;;;;46.23;11.12;100463.47;30734668;28;97440;-60
2022/09/03 10:20:36;;;;;;;4.67;1.90;;;;;;;45.83;10.26;100454.34;30732547;28;97393;-61
2022/09/03 10:35:45;;;;;;;4.20;1.90;;;;;;;47.03;10.30;100438.47;30732158;28;96910;-63
2022/09/03 10:50:50;;;;;;;5.33;1.90;;;;;;;44.45;10.92;100433.78;30802861;28;98275;-61
2022/09/03 11:06:06;;;;;;;7.17;2.13;;;;;;;45.20;11.37;100400.59;30852900;28;97287;-63
2022/09/03 11:21:12;;;;;;;6.37;2.23;;;;;;;39.08;14.67;100382.22;30836220;28;97015;-62
2022/09/03 11:36:29;;;;;;;4.93;1.97;;;;;;;42.29;12.31;100381.75;30748602;28;96673;-62
2022/09/03 11:51:32;;;;;;;4.43;2.40;;;;;;;35.86;17.34;100361.28;30746794;28;96713;-61
2022/09/03 12:06:50;;;;;;;6.03;2.60;;;;;;;29.92;23.06;100374.97;30737367;28;97356;-62
2022/09/03 12:21:51;;;;;;;7.23;2.67;;;;;;;26.67;26.99;100348.91;30731982;28;97002;-64
2022/09/03 12:36:53;;;;;;;7.95;2.35;;;;;;;25.66;29.76;100344.63;30736417;28;97033;-61
2022/09/03 12:52:04;;;;;;;4.23;2.40;;;;;;;24.54;30.79;100350.97;30760889;28;96870;-61
2022/09/03 13:07:32;;;;;;;5.90;2.33;;;;;;;24.11;32.04;100333.69;30859282;28;97829;-61
2022/09/03 13:22:53;;;;;;;3.73;2.30;;;;;;;25.23;31.47;100332.94;30858386;28;96861;-61
2022/09/03 13:38:08;;;;;;;5.57;2.97;;;;;;;25.24;30.77;100331.84;30857554;28;96679;-61
2022/09/03 13:53:25;;;;;;;3.97;2.70;;;;;;;23.77;32.95;100337.41;30824551;28;96886;-61
2022/09/03 14:09:02;;;;;;;6.07;2.33;;;;;;;23.65;33.61;100334.81;30733883;28;96738;-59
2022/09/03 14:24:11;;;;;;;6.20;2.67;;;;;;;23.30;34.71;100324.31;30729171;28;97601;-60
2022/09/03 14:39:15;;;;;;;5.70;2.70;;;;;;;22.71;36.00;100324.81;30781357;28;97488;-60
2022/09/03 14:54:36;;;;;;;5.63;2.80;;;;;;;22.00;38.21;100330.63;30840694;28;96842;-60
2022/09/03 15:10:01;;;;;;;5.23;2.50;;;;;;;21.76;39.78;100309.84;30856512;28;97657;-60
2022/09/03 15:25:39;;;;;;;4.00;2.57;;;;;;;21.63;40.20;100327.22;30861041;28;97040;-60
2022/09/03 15:40:50;;;;;;;6.67;3.00;;;;;;;21.10;41.55;100328.22;30858308;28;96855;-61
2022/09/03 15:56:06;;;;;;;8.13;3.90;;;;;;;20.42;43.31;100333.94;30777980;28;97437;-62
2022/09/03 16:11:18;;;;;;;4.83;3.23;;;;;;;20.00;44.76;100336.63;30809075;28;97686;-61
2022/09/03 16:26:48;;;;;;;6.23;3.70;;;;;;;19.56;45.67;100327.78;30886868;28;97497;-62
2022/09/03 16:41:56;;;;;;;7.23;3.60;;;;;;;19.08;46.69;100334.75;30891803;28;97323;-61
2022/09/03 16:57:14;;;;;;;8.33;3.30;;;;;;;18.60;47.84;100336.19;30883697;28;97141;-62
2022/09/03 17:13:08;;;;;;;8.43;3.57;;;;;;;18.04;49.38;100327.03;30882012;28;97990;-64
2022/09/03 17:28:34;;;;;;;7.27;4.00;;;;;;;17.57;50.58;100335.31;30795341;28;96984;-61
2022/09/03 17:43:54;;;;;;;7.67;3.87;;;;;;;17.14;51.90;100343.91;30780277;28;96700;-62
2022/09/03 17:59:07;;;;;;;9.60;4.13;;;;;;;16.72;52.76;100341.44;30788079;28;97394;-63
2022/09/03 18:14:14;;;;;;;16.87;8.13;;;;;;;16.33;54.31;100348.44;30852720;28;96910;-62
2022/09/03 20:17:43;;;;;;;6.97;4.87;;;;;;;14.29;62.41;100415.41;30740757;28;97140;-62
2022/09/03 20:33:11;;;;;;;9.67;6.00;;;;;;;14.01;63.45;100423.31;30743684;28;96780;-62
2022/09/03 20:48:42;;;;;;;9.13;5.47;;;;;;;13.82;64.28;100430.06;30740726;28;97693;-62
2022/09/03 21:03:50;;;;;;;7.53;5.80;;;;;;;13.63;65.29;100443.03;30742318;28;96707;-62
2022/09/03 21:19:15;;;;;;;12.07;7.07;;;;;;;13.45;66.14;100448.72;30741149;28;97117;-63
2022/09/03 21:34:39;;;;;;;9.77;6.73;;;;;;;13.33;66.86;100447.50;30740038;28;96608;-62
2022/09/03 21:50:06;;;;;;;13.37;7.00;;;;;;;13.17;67.44;100451.13;30738825;28;97496;-63
2022/09/03 22:05:07;;;;;;;13.80;7.10;;;;;;;13.03;68.12;100463.47;30737496;28;97224;-63
2022/09/03 22:20:10;;;;;;;9.38;6.70;;;;;;;12.88;68.33;100460.72;30735666;28;96750;-62
2022/09/03 22:35:24;;;;;;;13.57;7.93;;;;;;;12.81;68.96;100454.44;30735217;28;96776;-63
2022/09/03 22:50:34;;;;;;;11.20;7.13;;;;;;;12.76;69.28;100451.47;30733979;28;97509;-63
2022/09/03 23:06:00;;;;;;;13.10;5.90;;;;;;;12.70;69.55;100453.00;30733048;28;96685;-62
2022/09/03 23:21:06;;;;;;;9.53;6.30;;;;;;;12.58;70.35;100435.72;30734047;28;97437;-62
2022/09/03 23:36:21;;;;;;;7.30;5.57;;;;;;;12.41;70.67;100445.66;30751740;28;97402;-63
2022/09/03 23:51:21;;;;;;;14.53;10.47;;;;;;;12.26;71.29;100456.25;30750993;28;97714;-62
